Time;durP1;ratioP1;P1;durP2;ratioP2;P2;SDS_P1;SDS_P2;PMS_P1;PMS_P2;Temp;Humidity;BMP_temperature;BMP_pressure;BME280_temperature;BME280_humidity;BME280_pressure;Samples;Min_cycle;Max_cycle;Signal;HPM_P1;HPM_P2
2023/08/02 00:00:01;;;;;;;;;1.33;0.67;;;;;17.86;90.16;99550.63;5123697;27;45263;-83
2023/08/02 00:02:27;;;;;;;;;6.00;1.67;;;;;18.00;92.03;99587.72;5117834;27;45332;-83
2023/08/02 00:04:52;;;;;;;;;1.33;1.00;;;;;17.69;92.02;99547.81;5118015;27;45410;-84
2023/08/02 00:07:18;;;;;;;;;2.00;2.00;;;;;17.80;92.19;99562.00;5129544;27;45502;-83
2023/08/02 00:09:43;;;;;;;;;4.00;2.00;;;;;17.92;92.86;99575.03;5126706;27;47287;-82
2023/08/02 00:12:08;;;;;;;;;2.33;2.33;;;;;17.83;93.45;99564.38;5118495;27;52139;-81
2023/08/02 00:14:34;;;;;;;;;1.00;1.00;;;;;17.76;93.35;99555.25;5119396;27;45327;-84
2023/08/02 00:16:59;;;;;;;;;1.00;1.00;;;;;17.57;94.20;99519.44;5126611;27;45470;-84
2023/08/02 00:19:24;;;;;;;;;1.00;1.00;;;;;17.66;93.50;99523.06;5132451;27;45387;-84
2023/08/02 00:21:50;;;;;;;;;1.00;1.00;;;;;17.66;94.50;99531.97;5120981;27;45429;-84
2023/08/02 00:24:15;;;;;;;;;1.33;1.33;;;;;17.79;94.51;99542.34;5118923;27;57210;-83
2023/08/02 00:26:40;;;;;;;;;2.00;2.00;;;;;17.66;93.85;99515.81;5118917;27;45593;-85
2023/08/02 00:29:06;;;;;;;;;0.67;0.67;;;;;17.81;93.85;99523.34;5117793;27;52222;-82
2023/08/02 00:31:31;;;;;;;;;0.00;0.00;;;;;17.76;94.96;99520.31;5118196;27;45332;-84
2023/08/02 00:33:56;;;;;;;;;0.67;0.00;;;;;17.78;94.51;99512.91;5138225;27;50798;-83
2023/08/02 00:36:22;;;;;;;;;2.00;0.00;;;;;17.75;94.28;99508.69;5123063;27;45410;-83
2023/08/02 00:38:47;;;;;;;;;0.00;0.00;;;;;17.74;95.39;99498.09;5119981;27;45793;-84
2023/08/02 00:41:12;;;;;;;;;0.00;0.00;;;;;17.58;95.74;99478.16;5126067;27;45190;-84
2023/08/02 00:43:42;;;;;;;;;0.00;0.00;;;;;17.68;96.38;99486.09;5120114;27;45312;-84
2023/08/02 00:46:10;;;;;;;;;2.00;0.00;;;;;17.55;97.02;99458.78;5123713;27;45339;-84
2023/08/02 00:48:37;;;;;;;;;0.00;0.00;;;;;17.53;96.03;99445.50;5120285;27;47515;-81
2023/08/02 00:51:02;;;;;;;;;0.00;0.00;;;;;17.55;96.34;99443.50;5138464;27;45376;-82
2023/08/02 00:53:29;;;;;;;;;1.33;0.00;;;;;17.54;98.88;99431.06;5119664;27;45281;-83
2023/08/02 00:55:56;;;;;;;;;0.00;0.00;;;;;17.50;99.41;99421.63;5124501;27;45410;-83
2023/08/02 00:58:21;;;;;;;;;1.00;1.00;;;;;17.34;100.00;99387.44;5114159;27;46570;-83
2023/08/02 01:00:47;;;;;;;;;1.67;1.00;;;;;17.42;99.58;99408.13;5117120;27;45510;-84
2023/08/02 01:03:12;;;;;;;;;1.33;0.00;;;;;17.47;100.00;99410.38;5117282;27;45442;-83
2023/08/02 01:05:46;;;;;;;;;0.00;0.00;;;;;17.43;100.00;99407.13;5128167;27;45320;-82
2023/08/02 01:08:19;;;;;;;;;0.00;0.00;;;;;17.41;100.00;99398.38;5128408;27;46537;-81
2023/08/02 01:11:07;;;;;;;;;0.33;0.00;;;;;17.38;100.00;99396.03;5137741;27;45422;-83
2023/08/02 01:13:35;;;;;;;;;0.00;0.00;;;;;17.35;100.00;99372.16;5137642;27;45326;-82
2023/08/02 01:16:02;;;;;;;;;0.00;0.00;;;;;17.38;100.00;99374.53;5123714;27;45205;-82
2023/08/02 01:18:28;;;;;;;;;0.00;0.00;;;;;17.29;100.00;99353.97;5116874;27;46005;-82
2023/08/02 01:20:53;;;;;;;;;0.00;0.00;;;;;17.30;100.00;99351.13;5116755;27;45317;-81
2023/08/02 01:23:19;;;;;;;;;0.00;0.00;;;;;17.32;100.00;99351.00;5117011;27;45364;-80
2023/08/02 01:25:47;;;;;;;;;0.00;0.00;;;;;17.20;100.00;99331.59;5127643;27;45227;-81
2023/08/02 01:28:20;;;;;;;;;0.00;0.00;;;;;17.09;100.00;99313.91;5119080;27;45518;-81
2023/08/02 01:30:47;;;;;;;;;0.00;0.00;;;;;17.25;100.00;99329.28;5116735;27;45467;-82
2023/08/02 01:33:14;;;;;;;;;0.00;0.00;;;;;17.27;100.00;99315.66;5123040;27;45320;-83
2023/08/02 01:35:39;;;;;;;;;0.00;0.00;;;;;17.17;100.00;99283.53;5135989;27;45390;-80
2023/08/02 01:38:05;;;;;;;;;0.00;0.00;;;;;17.30;100.00;99310.81;5119878;27;46092;-82
2023/08/02 01:40:31;;;;;;;;;0.00;0.00;;;;;17.26;100.00;99297.88;5119368;27;45228;-82
2023/08/02 01:42:56;;;;;;;;;0.00;0.00;;;;;17.16;100.00;99270.25;5137437;27;45219;-82
2023/08/02 01:45:22;;;;;;;;;0.00;0.00;;;;;17.35;100.00;99291.53;5128964;27;45184;-80
2023/08/02 01:47:48;;;;;;;;;0.00;0.00;;;;;17.29;100.00;99273.34;5129847;27;46032;-81
2023/08/02 01:50:14;;;;;;;;;1.00;0.00;;;;;17.40;100.00;99286.50;5140560;27;45372;-83
2023/08/02 01:52:39;;;;;;;;;1.00;0.00;;;;;17.14;100.00;99253.47;5140888;27;45315;-82
2023/08/02 01:55:05;;;;;;;;;0.00;0.00;;;;;17.41;100.00;99290.88;5135074;27;45304;-82
2023/08/02 01:57:30;;;;;;;;;0.00;0.00;;;;;17.34;100.00;99268.34;5130907;27;45636;-82
2023/08/02 01:59:55;;;;;;;;;0.00;0.00;;;;;17.43;100.00;99280.81;5140364;27;45262;-81
2023/08/02 02:02:21;;;;;;;;;2.00;0.00;;;;;17.47;100.00;99282.19;5140939;27;45745;-81
2023/08/02 02:04:46;;;;;;;;;0.00;0.00;;;;;17.47;100.00;99266.06;5137690;27;45504;-81
2023/08/02 02:07:18;;;;;;;;;0.00;0.00;;;;;17.46;100.00;99269.75;5128151;27;45603;-82
2023/08/02 02:09:43;;;;;;;;;0.00;0.00;;;;;17.24;100.00;99230.03;5140669;27;45314;-81
2023/08/02 02:12:08;;;;;;;;;0.00;0.00;;;;;17.37;100.00;99241.16;5140485;27;45179;-80
2023/08/02 02:14:34;;;;;;;;;0.00;0.00;;;;;17.36;100.00;99228.72;5139423;27;45278;-81
2023/08/02 02:16:59;;;;;;;;;0.00;0.00;;;;;17.50;100.00;99246.91;5132290;27;49396;-81
2023/08/02 02:19:24;;;;;;;;;0.00;0.00;;;;;17.53;100.00;99241.22;5119492;27;45306;-81
2023/08/02 02:21:49;;;;;;;;;0.00;0.00;;;;;17.54;100.00;99253.63;5119469;27;45358;-82
2023/08/02 02:24:15;;;;;;;;;0.00;0.00;;;;;17.53;100.00;99230.44;5138220;27;45530;-80
2023/08/02 02:26:40;;;;;;;;;0.00;0.00;;;;;17.49;100.00;99215.66;5124667;27;47235;-80
2023/08/02 02:29:06;;;;;;;;;1.00;0.00;;;;;17.48;100.00;99214.00;5139965;27;45771;-81
2023/08/02 02:31:31;;;;;;;;;0.00;0.00;;;;;17.47;100.00;99201.56;5120257;27;49925;-82
2023/08/02 02:33:56;;;;;;;;;0.00;0.00;;;;;17.56;100.00;99210.47;5101070;27;45528;-81
2023/08/02 02:36:21;;;;;;;;;0.00;0.00;;;;;17.57;100.00;99207.59;5133126;27;46304;-81
2023/08/02 02:38:48;;;;;;;;;0.00;0.00;;;;;17.61;100.00;99206.28;5100859;27;46292;-81
2023/08/02 02:41:14;;;;;;;;;0.00;0.00;;;;;17.57;100.00;99178.03;5101215;27;45535;-81
2023/08/02 02:43:39;;;;;;;;;0.00;0.00;;;;;17.57;100.00;99178.03;5119281;27;45402;-82
2023/08/02 02:46:04;;;;;;;;;0.00;0.00;;;;;17.56;100.00;99173.66;5131782;27;45421;-81
2023/08/02 02:48:30;;;;;;;;;1.67;0.00;;;;;17.58;100.00;99163.63;5120661;27;57030;-81
2023/08/02 02:50:55;;;;;;;;;0.00;0.00;;;;;17.56;100.00;99154.00;5100859;27;45533;-82
2023/08/02 02:53:23;;;;;;;;;0.00;0.00;;;;;17.56;100.00;99132.50;5118871;27;57708;-82
2023/08/02 02:55:48;;;;;;;;;1.33;0.00;;;;;17.61;100.00;99141.78;5129011;27;45349;-82
2023/08/02 02:58:13;;;;;;;;;0.00;0.00;;;;;17.68;100.00;99140.13;5108266;27;62136;-82
2023/08/02 03:00:38;;;;;;;;;0.00;0.00;;;;;17.57;100.00;99107.31;5100231;27;45371;-82
2023/08/02 03:03:04;;;;;;;;;0.00;0.00;;;;;17.67;100.00;99124.13;5118909;27;50284;-82
2023/08/02 03:05:29;;;;;;;;;1.00;1.00;;;;;17.31;100.00;99062.59;5124503;27;45384;-81
2023/08/02 03:07:54;;;;;;;;;0.00;0.00;;;;;17.60;100.00;99099.78;5139321;27;45517;-81
2023/08/02 03:10:20;;;;;;;;;0.00;0.00;;;;;17.73;100.00;99098.47;5139663;27;45328;-82
2023/08/02 03:12:45;;;;;;;;;0.00;0.00;;;;;17.61;100.00;99079.94;5139459;27;45435;-81
2023/08/02 03:15:10;;;;;;;;;0.00;0.00;;;;;17.75;100.00;99089.22;5138821;27;45924;-82
2023/08/02 03:17:36;;;;;;;;;0.00;0.00;;;;;17.64;100.00;99050.03;5129800;27;52178;-81
2023/08/02 03:20:01;;;;;;;;;0.00;0.00;;;;;17.86;100.00;99069.22;5139335;27;45453;-82
2023/08/02 03:22:26;;;;;;;;;0.00;0.00;;;;;17.90;100.00;99076.75;5139531;27;45513;-81
2023/08/02 03:24:52;;;;;;;;;0.00;0.00;;;;;17.89;100.00;99068.88;5122998;27;45496;-82
2023/08/02 03:27:17;;;;;;;;;0.00;0.00;;;;;17.84;100.00;99044.31;5126313;27;45391;-82
2023/08/02 03:29:42;;;;;;;;;0.00;0.00;;;;;18.06;100.00;99070.50;5139072;27;45478;-82
2023/08/02 03:32:08;;;;;;;;;0.00;0.00;;;;;18.06;100.00;99059.75;5139365;27;45631;-81
2023/08/02 03:34:33;;;;;;;;;0.00;0.00;;;;;18.12;100.00;99060.94;5138907;27;45493;-82
2023/08/02 03:36:58;;;;;;;;;0.00;0.00;;;;;18.20;100.00;99063.59;5136878;27;45419;-81
2023/08/02 03:39:27;;;;;;;;;0.00;0.00;;;;;18.25;100.00;99055.88;5138726;27;50210;-82
2023/08/02 03:41:54;;;;;;;;;0.00;0.00;;;;;18.28;100.00;99058.19;5139118;27;45444;-82
2023/08/02 03:44:19;;;;;;;;;0.00;0.00;;;;;18.32;100.00;99053.31;5138713;27;46514;-82
2023/08/02 03:46:44;;;;;;;;;0.00;0.00;;;;;18.16;100.00;99014.69;5121091;27;47998;-81
2023/08/02 03:49:09;;;;;;;;;0.00;0.00;;;;;18.35;100.00;99042.19;5117250;27;61852;-81
2023/08/02 03:51:35;;;;;;;;;0.00;0.00;;;;;18.38;100.00;99048.09;5118026;27;45689;-82
2023/08/02 03:54:00;;;;;;;;;0.00;0.00;;;;;18.36;100.00;99033.09;5117813;27;45763;-81
2023/08/02 03:56:25;;;;;;;;;1.00;0.00;;;;;18.37;100.00;99029.44;5131606;27;47239;-81
2023/08/02 03:58:51;;;;;;;;;0.00;0.00;;;;;18.43;100.00;99023.34;5138240;27;57324;-81
2023/08/02 04:01:16;;;;;;;;;0.00;0.00;;;;;18.50;100.00;99035.09;5138953;27;45331;-81
2023/08/02 04:03:41;;;;;;;;;0.00;0.00;;;;;18.44;100.00;99015.06;5118764;27;45457;-81
2023/08/02 04:06:07;;;;;;;;;0.00;0.00;;;;;18.56;100.00;99019.06;5117972;27;45796;-81
2023/08/02 04:08:32;;;;;;;;;0.00;0.00;;;;;18.50;100.00;99003.63;5138492;27;45318;-79
2023/08/02 04:11:04;;;;;;;;;0.00;0.00;;;;;18.51;100.00;99004.47;5137700;27;45266;-82
2023/08/02 04:13:29;;;;;;;;;0.00;0.00;;;;;18.53;100.00;99003.28;5137354;27;45479;-82
2023/08/02 04:15:54;;;;;;;;;0.00;0.00;;;;;18.64;100.00;99009.31;5128611;27;45364;-81
2023/08/02 04:18:20;;;;;;;;;0.00;0.00;;;;;18.66;100.00;99004.59;5099163;27;48793;-82
2023/08/02 04:20:45;;;;;;;;;0.67;0.00;;;;;18.62;100.00;98996.00;5099663;27;45334;-81
2023/08/02 04:23:10;;;;;;;;;0.00;0.00;;;;;18.56;100.00;98997.53;5099089;27;47993;-83
2023/08/02 04:25:35;;;;;;;;;0.00;0.00;;;;;18.39;100.00;98970.88;5117603;27;49000;-82
2023/08/02 04:28:01;;;;;;;;;0.00;0.00;;;;;18.68;100.00;98989.94;5117397;27;45365;-82
2023/08/02 04:30:26;;;;;;;;;0.00;0.00;;;;;18.75;100.00;99007.06;5117710;27;45470;-81
2023/08/02 04:32:53;;;;;;;;;0.00;0.00;;;;;18.67;100.00;98977.47;5117534;27;45407;-82
2023/08/02 04:35:19;;;;;;;;;0.00;0.00;;;;;18.76;100.00;98986.38;5121399;27;45420;-81
2023/08/02 04:37:45;;;;;;;;;0.00;0.00;;;;;18.81;100.00;98986.66;5138097;27;45320;-82
2023/08/02 04:40:11;;;;;;;;;0.00;0.00;;;;;18.76;100.00;98976.44;5138222;27;45458;-82
2023/08/02 04:42:36;;;;;;;;;0.00;0.00;;;;;18.79;100.00;98975.22;5137868;27;46173;-81
2023/08/02 04:45:01;;;;;;;;;0.00;0.00;;;;;18.88;100.00;98982.25;5136386;27;45344;-83
2023/08/02 04:47:27;;;;;;;;;0.00;0.00;;;;;18.93;100.00;98979.00;5137581;27;45733;-81
2023/08/02 04:49:53;;;;;;;;;0.00;0.00;;;;;18.85;100.00;98964.56;5138519;27;45312;-83
2023/08/02 04:52:19;;;;;;;;;1.00;0.00;;;;;18.85;100.00;98956.50;5137492;27;45363;-82
2023/08/02 04:54:44;;;;;;;;;0.00;0.00;;;;;19.02;100.00;98988.72;5137960;27;45403;-81
2023/08/02 04:57:09;;;;;;;;;0.00;0.00;;;;;18.99;100.00;98959.44;5118239;27;47553;-81
2023/08/02 04:59:34;;;;;;;;;0.00;0.00;;;;;19.02;100.00;98964.47;5137941;27;45363;-82
2023/08/02 05:02:00;;;;;;;;;2.00;0.00;;;;;19.09;100.00;98965.41;5128277;27;61514;-82
2023/08/02 05:04:25;;;;;;;;;0.00;0.00;;;;;19.11;100.00;98963.38;5137355;27;45327;-82
2023/08/02 05:06:50;;;;;;;;;0.00;0.00;;;;;19.08;100.00;98953.81;5121459;27;45260;-83
2023/08/02 05:09:15;;;;;;;;;0.00;0.00;;;;;19.14;100.00;98965.72;5116859;27;45541;-83
2023/08/02 05:11:41;;;;;;;;;0.00;0.00;;;;;19.09;100.00;98944.69;5117672;27;55021;-84
2023/08/02 05:14:06;;;;;;;;;0.00;0.00;;;;;19.20;100.00;98950.69;5137768;27;45320;-81
2023/08/02 05:16:32;;;;;;;;;0.00;0.00;;;;;19.21;100.00;98945.13;5115755;27;45684;-82
2023/08/02 05:18:57;;;;;;;;;0.00;0.00;;;;;19.24;100.00;98949.31;5121231;27;45472;-81
2023/08/02 05:21:25;;;;;;;;;0.00;0.00;;;;;19.13;100.00;98915.53;5117098;27;46175;-81
2023/08/02 05:23:51;;;;;;;;;0.00;0.00;;;;;19.04;100.00;98893.22;5119963;27;45317;-82
2023/08/02 05:26:16;;;;;;;;;0.00;0.00;;;;;19.26;100.00;98933.78;5102691;27;45701;-82
2023/08/02 05:28:41;;;;;;;;;0.67;0.00;;;;;19.22;100.00;98919.00;5120486;27;45537;-82
2023/08/02 05:31:11;;;;;;;;;0.00;0.00;;;;;19.26;100.00;98918.44;5120331;27;46689;-80
2023/08/02 05:33:37;;;;;;;;;0.00;0.00;;;;;19.27;100.00;98922.84;5124235;27;45514;-82
2023/08/02 05:36:03;;;;;;;;;0.00;0.00;;;;;19.36;100.00;98919.03;5131462;27;45570;-80
2023/08/02 05:38:30;;;;;;;;;0.00;0.00;;;;;19.24;100.00;98896.22;5127331;27;45482;-77
2023/08/02 05:40:59;;;;;;;;;0.00;0.00;;;;;19.34;100.00;98902.22;5118962;27;46377;-78
2023/08/02 05:43:25;;;;;;;;;0.00;0.00;;;;;19.47;100.00;98915.06;5117446;27;45763;-78
2023/08/02 05:45:53;;;;;;;;;0.00;0.00;;;;;19.49;100.00;98902.22;5118101;27;45890;-78
2023/08/02 05:48:19;;;;;;;;;0.00;0.00;;;;;19.45;100.00;98890.16;5118205;27;45561;-80
2023/08/02 05:50:44;;;;;;;;;0.50;0.00;;;;;19.47;100.00;98898.88;5133707;27;46603;-82
2023/08/02 05:53:09;;;;;;;;;0.00;0.00;;;;;19.61;100.00;98913.44;5139762;27;45465;-83
2023/08/02 05:55:35;;;;;;;;;1.67;0.00;;;;;19.60;100.00;98904.50;5139541;27;46777;-83
2023/08/02 05:58:00;;;;;;;;;0.00;0.00;;;;;19.66;100.00;98913.72;5141101;27;45650;-82
2023/08/02 06:00:25;;;;;;;;;0.00;0.00;;;;;19.44;100.00;98878.53;5137357;27;55514;-83
2023/08/02 06:02:51;;;;;;;;;1.00;0.00;;;;;19.67;100.00;98910.84;5136955;27;45511;-80
2023/08/02 06:05:16;;;;;;;;;0.00;0.00;;;;;19.70;100.00;98905.09;5141931;27;45593;-82
2023/08/02 06:07:41;;;;;;;;;0.00;0.00;;;;;19.72;100.00;98902.19;5129312;27;45709;-86
2023/08/02 06:10:07;;;;;;;;;0.00;0.00;;;;;19.61;100.00;98864.91;5122945;27;58575;-83
2023/08/02 06:12:32;;;;;;;;;0.00;0.00;;;;;19.72;100.00;98894.09;5107674;27;45885;-85
2023/08/02 06:14:58;;;;;;;;;0.00;0.00;;;;;19.73;100.00;98876.91;5122056;27;45241;-88
2023/08/02 06:17:25;;;;;;;;;0.00;0.00;;;;;19.86;100.00;98892.44;5123783;27;46839;-83
2023/08/02 06:19:51;;;;;;;;;0.00;0.00;;;;;19.66;100.00;98855.25;5135792;27;45351;-81
2023/08/02 06:22:16;;;;;;;;;1.00;0.50;;;;;19.93;100.00;98875.31;5130795;27;45511;-82
2023/08/02 06:24:43;;;;;;;;;0.00;0.00;;;;;19.97;100.00;98873.06;5122080;27;45457;-82
2023/08/02 06:27:09;;;;;;;;;0.00;0.00;;;;;19.95;100.00;98859.78;5130932;27;45352;-80
2023/08/02 06:29:35;;;;;;;;;0.00;0.00;;;;;19.86;100.00;98844.69;5139790;27;45411;-81
2023/08/02 06:32:00;;;;;;;;;0.00;0.00;;;;;19.98;100.00;98848.59;5136141;27;45553;-80
2023/08/02 06:34:25;;;;;;;;;0.00;0.00;;;;;19.99;100.00;98846.72;5129483;27;45427;-80
2023/08/02 06:36:51;;;;;;;;;0.50;0.00;;;;;20.06;100.00;98849.53;5141642;27;45266;-79
2023/08/02 06:39:16;;;;;;;;;0.00;0.00;;;;;20.08;100.00;98860.97;5123060;27;45490;-81
2023/08/02 06:41:41;;;;;;;;;0.00;0.00;;;;;20.01;100.00;98844.69;5111964;27;45730;-81
2023/08/02 06:44:07;;;;;;;;;0.00;0.00;;;;;20.15;100.00;98864.56;5141127;27;45318;-79
2023/08/02 06:46:33;;;;;;;;;2.00;0.00;;;;;20.26;100.00;98850.59;5123965;27;45383;-83
2023/08/02 06:48:59;;;;;;;;;0.00;0.00;;;;;20.22;100.00;98838.50;5119682;27;45257;-83
2023/08/02 06:51:24;;;;;;;;;0.00;0.00;;;;;20.23;100.00;98843.72;5135621;27;45261;-80
2023/08/02 06:53:49;;;;;;;;;0.00;0.00;;;;;20.06;100.00;98795.56;5140407;27;45546;-82
2023/08/02 06:56:16;;;;;;;;;0.50;0.00;;;;;20.26;100.00;98820.88;5130352;27;45644;-82
2023/08/02 06:58:42;;;;;;;;;0.00;0.00;;;;;20.12;100.00;98802.88;5134553;27;46526;-83
2023/08/02 07:01:14;;;;;;;;;0.00;0.00;;;;;20.21;99.63;98809.84;5138578;27;45419;-84
2023/08/02 07:03:40;;;;;;;;;2.00;0.00;;;;;20.40;98.02;98820.00;5121174;27;45339;-81
2023/08/02 07:06:12;;;;;;;;;0.00;0.00;;;;;20.50;97.73;98836.75;5120465;27;45471;-82
2023/08/02 07:08:38;;;;;;;;;0.00;0.00;;;;;20.40;97.44;98801.09;5139106;27;45263;-80
2023/08/02 07:11:04;;;;;;;;;0.00;0.00;;;;;20.64;96.30;98820.69;5132111;27;45458;-80
2023/08/02 07:13:31;;;;;;;;;0.00;0.00;;;;;20.75;95.55;98839.09;5137770;27;45392;-79
2023/08/02 07:15:56;;;;;;;;;0.00;0.00;;;;;20.80;95.07;98818.53;5138711;27;45345;-80
2023/08/02 07:18:22;;;;;;;;;1.50;0.00;;;;;20.97;93.68;98811.03;5128582;27;45959;-79
2023/08/02 07:20:47;;;;;;;;;0.00;0.00;;;;;20.92;90.70;98787.25;5126265;27;45575;-80
2023/08/02 07:23:13;;;;;;;;;0.00;0.00;;;;;21.16;89.65;98802.22;5138599;27;45336;-79
2023/08/02 07:25:38;;;;;;;;;0.00;0.00;;;;;21.18;88.13;98794.72;5138822;27;45376;-79
2023/08/02 07:28:03;;;;;;;;;0.00;0.00;;;;;21.30;88.04;98805.88;5136983;27;45344;-79
2023/08/02 07:30:29;;;;;;;;;0.25;0.25;;;;;21.25;87.86;98807.47;5131821;27;45344;-78
2023/08/02 07:32:54;;;;;;;;;0.00;0.00;;;;;21.12;87.56;98795.53;5136926;27;45325;-77
2023/08/02 07:35:19;;;;;;;;;0.00;0.00;;;;;21.33;86.66;98818.16;5138606;27;45348;-78
2023/08/02 07:37:45;;;;;;;;;0.00;0.00;;;;;21.42;86.70;98815.09;5138220;27;48893;-78
2023/08/02 07:40:10;;;;;;;;;0.00;0.00;;;;;21.59;85.82;98815.59;5136547;27;45407;-79
2023/08/02 07:42:36;;;;;;;;;1.50;0.00;;;;;21.63;84.94;98816.91;5138656;27;45506;-78
2023/08/02 07:45:09;;;;;;;;;1.25;0.00;;;;;21.78;84.64;98809.47;5135367;27;45384;-79
2023/08/02 07:47:35;;;;;;;;;0.00;0.00;;;;;22.00;82.94;98801.22;5138229;27;45415;-78
2023/08/02 07:50:01;;;;;;;;;0.00;0.00;;;;;22.10;82.35;98785.47;5135091;27;45685;-79
2023/08/02 07:52:26;;;;;;;;;0.00;0.00;;;;;22.16;81.82;98806.31;5119653;27;45495;-79
2023/08/02 07:54:53;;;;;;;;;0.00;0.00;;;;;22.26;81.41;98804.03;5134645;27;45565;-80
2023/08/02 07:57:22;;;;;;;;;0.00;0.00;;;;;22.03;79.93;98747.53;5125809;27;45657;-78
2023/08/02 07:59:48;;;;;;;;;0.00;0.00;;;;;22.46;79.67;98795.97;5137156;27;45692;-78
2023/08/02 08:02:15;;;;;;;;;0.00;0.00;;;;;22.55;78.12;98783.06;5132566;27;45637;-80
2023/08/02 08:04:41;;;;;;;;;0.00;0.00;;;;;22.45;78.20;98778.06;5126512;27;45884;-79
2023/08/02 08:07:06;;;;;;;;;0.00;0.00;;;;;22.44;78.09;98767.44;5125362;27;45584;-79
2023/08/02 08:09:31;;;;;;;;;0.00;0.00;;;;;22.66;77.54;98793.31;5137067;27;49374;-80
2023/08/02 08:11:57;;;;;;;;;0.00;0.00;;;;;22.56;77.27;98765.78;5128142;27;45360;-78
2023/08/02 08:14:23;;;;;;;;;0.00;0.00;;;;;22.86;76.56;98791.44;5137927;27;45176;-80
2023/08/02 08:16:49;;;;;;;;;0.00;0.00;;;;;22.80;76.14;98780.59;5135007;27;45457;-80
2023/08/02 08:19:15;;;;;;;;;0.00;0.00;;;;;23.06;76.27;98791.44;5136942;27;45403;-79
2023/08/02 08:21:41;;;;;;;;;0.00;0.00;;;;;22.80;75.36;98753.47;5128048;27;45297;-79
2023/08/02 08:24:06;;;;;;;;;0.00;0.00;;;;;23.17;75.39;98789.97;5138353;27;45569;-78
2023/08/02 08:26:32;;;;;;;;;0.00;0.00;;;;;23.33;74.50;98792.25;5136352;27;45657;-79
2023/08/02 08:28:57;;;;;;;;;0.00;0.00;;;;;23.49;73.45;98791.78;5138001;27;45348;-84
2023/08/02 08:31:23;;;;;;;;;0.00;0.00;;;;;23.38;73.73;98778.88;5128999;27;45743;-82
2023/08/02 08:33:48;;;;;;;;;0.00;0.00;;;;;23.42;73.94;98782.81;5139702;27;45353;-80
2023/08/02 08:36:14;;;;;;;;;0.00;0.00;;;;;23.67;72.97;98788.41;5119368;27;48293;-84
2023/08/02 08:38:39;;;;;;;;;0.00;0.00;;;;;23.70;72.29;98765.44;5138414;27;45523;-83
2023/08/02 08:41:06;;;;;;;;;0.00;0.00;;;;;23.87;72.02;98791.06;5137958;27;45449;-81
2023/08/02 08:43:32;;;;;;;;;0.00;0.00;;;;;23.89;71.79;98756.38;5138603;27;45538;-83
2023/08/02 08:45:58;;;;;;;;;0.00;0.00;;;;;23.73;71.48;98729.75;5128508;27;45585;-81
2023/08/02 08:48:25;;;;;;;;;0.00;0.00;;;;;24.03;71.32;98771.56;5131644;27;45270;-83
2023/08/02 08:50:54;;;;;;;;;2.00;0.00;;;;;24.00;70.83;98761.13;5118615;27;45451;-81
2023/08/02 08:53:31;;;;;;;;;2.00;0.00;;;;;24.00;70.33;98761.13;5119013;27;45443;-82
2023/08/02 08:55:57;;;;;;;;;1.50;0.00;;;;;24.07;70.61;98764.63;5129047;27;46401;-80
2023/08/02 08:58:23;;;;;;;;;0.00;0.00;;;;;24.06;70.03;98749.41;5124595;27;45323;-79
2023/08/02 09:00:49;;;;;;;;;0.00;0.00;;;;;24.10;69.65;98747.94;5127994;27;45284;-81
2023/08/02 09:03:15;;;;;;;;;0.00;0.00;;;;;24.00;68.97;98744.84;5141242;27;45855;-77
2023/08/02 09:05:41;;;;;;;;;0.00;0.00;;;;;24.11;69.10;98735.19;5135109;27;46149;-77
2023/08/02 09:08:06;;;;;;;;;1.00;0.00;;;;;23.95;68.11;98714.78;5140596;27;45452;-78
2023/08/02 09:10:35;;;;;;;;;0.00;0.00;;;;;24.03;65.81;98730.00;5136065;27;45436;-78
2023/08/02 09:13:00;;;;;;;;;0.00;0.00;;;;;24.19;65.91;98734.91;5141149;27;45571;-77
2023/08/02 09:15:25;;;;;;;;;0.00;0.00;;;;;24.35;65.98;98731.72;5137247;27;46105;-76
2023/08/02 09:17:52;;;;;;;;;0.00;0.00;;;;;24.39;63.35;98704.94;5129867;27;45511;-77
2023/08/02 09:20:27;;;;;;;;;0.00;0.00;;;;;24.52;63.61;98729.28;5140171;27;45423;-78
2023/08/02 09:22:53;;;;;;;;;0.00;0.00;;;;;24.63;62.53;98728.56;5135721;27;45593;-76
2023/08/02 09:25:25;;;;;;;;;1.25;0.00;;;;;24.58;62.05;98703.09;5140469;27;46406;-77
2023/08/02 09:27:52;;;;;;;;;0.00;0.00;;;;;24.88;61.62;98736.72;5123113;27;45491;-76
2023/08/02 09:30:34;;;;;;;;;1.60;1.60;;;;;25.05;61.01;98744.34;5132727;27;45179;-76
2023/08/02 09:33:05;;;;;;;;;0.00;0.00;;;;;25.02;59.48;98699.38;5131136;27;45427;-77
2023/08/02 09:35:50;;;;;;;;;0.80;0.80;;;;;25.35;59.20;98745.25;5127601;27;45664;-74
2023/08/02 09:38:16;;;;;;;;;0.00;0.00;;;;;25.40;59.41;98744.59;5141587;27;45409;-77
2023/08/02 09:40:42;;;;;;;;;0.00;0.00;;;;;25.39;58.16;98722.00;5141410;27;45439;-79
2023/08/02 09:43:13;;;;;;;;;0.25;0.25;;;;;25.54;58.29;98749.66;5110248;27;45436;-75
2023/08/02 09:45:39;;;;;;;;;0.80;0.00;;;;;25.42;57.75;98731.59;5140551;27;46210;-76
2023/08/02 09:48:04;;;;;;;;;0.00;0.00;;;;;25.31;58.17;98741.34;5137522;27;45403;-75
2023/08/02 09:50:30;;;;;;;;;0.00;0.00;;;;;25.09;55.53;98713.72;5140433;27;45344;-76
2023/08/02 09:52:55;;;;;;;;;1.00;0.00;;;;;24.93;54.81;98730.59;5120192;27;45592;-77
2023/08/02 09:55:21;;;;;;;;;0.00;0.00;;;;;24.69;55.74;98741.25;5125696;27;45544;-79
2023/08/02 09:57:48;;;;;;;;;0.00;0.00;;;;;24.50;54.96;98744.97;5131517;27;45379;-78
2023/08/02 10:00:17;;;;;;;;;0.00;0.00;;;;;24.49;55.84;98743.31;5126587;27;45447;-77
2023/08/02 10:02:43;;;;;;;;;1.80;0.00;;;;;24.44;54.92;98743.13;5127215;27;45412;-79
2023/08/02 10:05:14;;;;;;;;;0.00;0.00;;;;;24.53;54.83;98732.84;5139732;27;45406;-81
2023/08/02 10:07:46;;;;;;;;;0.00;0.00;;;;;24.59;54.49;98746.34;5140140;27;45429;-78
2023/08/02 10:10:18;;;;;;;;;0.00;0.00;;;;;24.69;52.48;98748.59;5120278;27;45346;-77
2023/08/02 10:12:52;;;;;;;;;0.00;0.00;;;;;24.54;51.58;98762.50;5119705;27;45397;-79
2023/08/02 10:15:17;;;;;;;;;1.80;0.00;;;;;24.59;51.61;98769.97;5140134;27;45406;-79
2023/08/02 10:17:45;;;;;;;;;0.00;0.00;;;;;24.17;50.01;98722.59;5121412;27;45440;-78
2023/08/02 10:20:12;;;;;;;;;0.00;0.00;;;;;24.28;51.50;98770.81;5140263;27;45470;-77
2023/08/02 10:22:40;;;;;;;;;0.20;0.20;;;;;24.32;50.11;98772.06;5134510;27;45603;-81
2023/08/02 10:25:06;;;;;;;;;0.20;0.20;;;;;24.18;50.86;98759.56;5140067;27;46191;-78
2023/08/02 10:27:34;;;;;;;;;0.20;0.00;;;;;24.33;51.58;98771.81;5120833;27;45707;-79
2023/08/02 10:30:01;;;;;;;;;0.00;0.00;;;;;24.46;51.52;98779.06;5140399;27;45345;-79
2023/08/02 10:32:26;;;;;;;;;1.25;0.25;;;;;24.59;50.94;98762.66;5133191;27;45394;-78
2023/08/02 10:34:52;;;;;;;;;0.00;0.00;;;;;24.66;50.89;98752.59;5127566;27;46322;-79
2023/08/02 10:37:19;;;;;;;;;1.25;0.75;;;;;24.74;50.03;98747.91;5124914;27;45498;-81
2023/08/02 10:39:44;;;;;;;;;0.20;0.20;;;;;25.15;50.29;98775.41;5118507;27;45559;-78
2023/08/02 10:42:10;;;;;;;;;0.00;0.00;;;;;25.31;49.12;98759.56;5126460;27;45854;-78
2023/08/02 10:44:35;;;;;;;;;0.00;0.00;;;;;25.24;49.59;98751.44;5127149;27;46126;-79
2023/08/02 10:47:28;;;;;;;;;1.25;0.00;;;;;25.07;50.46;98772.97;5136656;27;45417;-80
2023/08/02 10:49:55;;;;;;;;;1.20;0.80;;;;;24.95;50.34;98778.28;5127624;27;45472;-79
2023/08/02 10:52:23;;;;;;;;;0.00;0.00;;;;;24.94;49.81;98778.50;5136939;27;45446;-80
2023/08/02 10:55:08;;;;;;;;;0.75;0.00;;;;;24.84;50.08;98753.69;5119892;27;46299;-80
2023/08/02 10:57:34;;;;;;;;;2.00;0.00;;;;;24.66;47.88;98755.31;5139089;27;45430;-80
2023/08/02 11:00:11;;;;;;;;;0.00;0.00;;;;;24.51;47.75;98759.41;5120498;27;45381;-77
2023/08/02 11:02:46;;;;;;;;;1.60;0.00;;;;;24.43;43.91;98744.19;5139169;27;45456;-78
2023/08/02 11:05:11;;;;;;;;;0.60;0.60;;;;;24.43;44.04;98744.19;5104572;27;47219;-80
2023/08/02 11:07:37;;;;;;;;;2.25;2.25;;;;;24.31;43.41;98737.78;5115832;27;45577;-79
2023/08/02 11:10:05;;;;;;;;;1.00;1.00;;;;;24.45;43.04;98747.50;5134691;27;45359;-80
2023/08/02 11:12:33;;;;;;;;;1.00;1.00;;;;;24.52;43.59;98753.75;5133291;27;45665;-81
2023/08/02 11:14:58;;;;;;;;;2.25;2.00;;;;;24.69;43.84;98759.47;5124701;27;47139;-80
2023/08/02 11:17:25;;;;;;;;;2.00;0.50;;;;;24.90;44.30;98744.66;5118657;27;45256;-81
2023/08/02 11:19:52;;;;;;;;;2.80;1.20;;;;;25.10;43.52;98750.75;5118522;27;45256;-80
2023/08/02 11:22:18;;;;;;;;;3.00;1.75;;;;;25.47;42.38;98758.94;5118674;27;45433;-81
2023/08/02 11:24:46;;;;;;;;;1.20;1.20;;;;;25.84;41.89;98767.97;5118386;27;45481;-81